createdAt,value
2022-08-09T00:00:23.292Z,69.01
2022-08-09T00:04:00.373Z,69.15
2022-08-09T00:06:18.098Z,69.03
2022-08-09T00:08:47.681Z,69.26
2022-08-09T00:11:24.797Z,69.25
2022-08-09T00:13:53.765Z,69.33
2022-08-09T00:16:26.284Z,69.52
2022-08-09T00:19:09.471Z,69.47
2022-08-09T00:21:43.258Z,69.28
2022-08-09T00:24:24.931Z,69.44
2022-08-09T00:26:55.901Z,69.20
2022-08-09T00:29:39.445Z,69.43
2022-08-09T00:32:14.157Z,69.21
2022-08-09T00:34:54.260Z,69.04
2022-08-09T00:37:22.385Z,69.12
2022-08-09T00:40:09.081Z,69.35
2022-08-09T00:44:10.304Z,69.60
2022-08-09T00:45:28.830Z,69.64
2022-08-09T00:47:57.201Z,69.78
2022-08-09T00:50:25.496Z,69.75
2022-08-09T00:52:55.431Z,69.86
2022-08-09T00:56:03.305Z,69.80
2022-08-09T00:58:14.829Z,69.91
2022-08-09T01:00:53.049Z,70.09
2022-08-09T01:03:28.641Z,70.01
2022-08-09T01:06:17.486Z,69.78
2022-08-09T01:08:56.856Z,69.97
2022-08-09T01:11:36.246Z,70.32
2022-08-09T01:14:09.929Z,70.54
2022-08-09T01:16:47.442Z,70.28
2022-08-09T01:19:42.565Z,70.41
2022-08-09T01:22:52.087Z,70.56
2022-08-09T01:25:41.717Z,70.62
2022-08-09T01:28:11.468Z,70.38
2022-08-09T01:30:52.128Z,70.34
2022-08-09T01:33:27.518Z,70.67
2022-08-09T01:36:02.780Z,70.73
2022-08-09T01:38:36.267Z,70.81
2022-08-09T01:41:15.550Z,70.72
2022-08-09T01:43:52.039Z,70.65
2022-08-09T01:46:26.853Z,70.65
2022-08-09T01:48:59.835Z,70.59
2022-08-09T01:51:32.303Z,70.66
2022-08-09T01:54:03.993Z,70.67
2022-08-09T01:56:34.948Z,70.57
2022-08-09T01:59:09.872Z,70.49
2022-08-09T02:01:58.968Z,70.76
2022-08-09T02:04:33.280Z,71.01
2022-08-09T02:07:17.770Z,71.32
2022-08-09T02:09:59.456Z,71.49
2022-08-09T02:12:32.265Z,70.84
2022-08-09T02:15:06.350Z,71.10
2022-08-09T02:18:00.176Z,71.43
2022-08-09T02:20:32.822Z,71.60
2022-08-09T02:23:08.250Z,71.58
2022-08-09T02:25:41.932Z,71.53
2022-08-09T02:28:18.101Z,71.33
2022-08-09T02:30:50.282Z,71.56
2022-08-09T02:33:37.725Z,71.65
2022-08-09T02:36:17.407Z,71.59
2022-08-09T02:38:50.638Z,71.55
2022-08-09T02:41:26.380Z,71.53
2022-08-09T02:43:58.269Z,71.62
2022-08-09T02:46:31.272Z,71.73
2022-08-09T02:49:05.455Z,71.66
2022-08-09T02:51:40.600Z,71.49
2022-08-09T02:54:13.951Z,71.19
2022-08-09T02:56:51.218Z,70.87
2022-08-09T02:59:26.658Z,71.25
2022-08-09T03:02:07.312Z,71.50
2022-08-09T03:04:41.441Z,71.58
2022-08-09T03:07:13.787Z,71.35
2022-08-09T03:09:54.410Z,71.39
2022-08-09T03:12:25.997Z,71.57
2022-08-09T03:14:56.140Z,71.68
2022-08-09T03:17:26.775Z,72.02
2022-08-09T03:20:03.534Z,72.01
2022-08-09T03:22:45.823Z,71.83
2022-08-09T03:25:57.715Z,71.90
2022-08-09T03:28:15.869Z,72.26
2022-08-09T03:30:46.393Z,72.37
2022-08-09T03:33:19.424Z,72.42
2022-08-09T03:36:13.287Z,72.61
2022-08-09T03:38:41.974Z,72.76
2022-08-09T03:41:15.259Z,72.75
2022-08-09T03:44:03.285Z,72.72
2022-08-09T03:46:34.932Z,72.25
2022-08-09T03:49:09.027Z,72.04
2022-08-09T03:51:56.040Z,73.37
2022-08-09T03:54:31.791Z,74.14
2022-08-09T03:57:04.551Z,74.24
2022-08-09T03:59:53.410Z,73.63
2022-08-09T04:02:26.561Z,72.65
2022-08-09T04:04:55.139Z,71.62
2022-08-09T04:07:23.286Z,70.82
2022-08-09T04:10:11.373Z,68.87
2022-08-09T04:12:46.896Z,67.58
2022-08-09T04:15:38.914Z,66.30
2022-08-09T04:18:08.516Z,65.01
2022-08-09T04:20:36.678Z,64.14
2022-08-09T04:23:10.090Z,63.29
2022-08-09T04:25:49.834Z,61.88
2022-08-09T04:28:31.481Z,60.60
2022-08-09T04:31:08.016Z,59.34
2022-08-09T04:33:51.980Z,58.63
2022-08-09T04:36:24.235Z,57.79
2022-08-09T04:38:53.186Z,56.49
2022-08-09T04:41:23.770Z,54.63
2022-08-09T04:44:05.588Z,53.33
2022-08-09T04:46:38.270Z,52.22
2022-08-09T04:49:40.885Z,51.33
2022-08-09T04:52:12.574Z,50.29
2022-08-09T04:54:51.052Z,49.23
2022-08-09T04:57:21.437Z,48.76
2022-08-09T04:59:53.834Z,47.87
2022-08-09T05:02:22.481Z,47.09
2022-08-09T05:04:55.222Z,46.12
2022-08-09T05:07:24.691Z,44.93
2022-08-09T05:09:55.959Z,43.81
2022-08-09T05:12:24.202Z,42.87
2022-08-09T05:14:52.268Z,42.34
2022-08-09T05:18:50.675Z,42.03
2022-08-09T05:20:10.403Z,40.97
2022-08-09T05:23:56.851Z,40.19
2022-08-09T05:25:28.319Z,39.46
2022-08-09T05:28:00.759Z,39.09
2022-08-09T05:30:29.896Z,38.75
2022-08-09T05:33:00.060Z,38.08
2022-08-09T05:35:29.936Z,37.86
2022-08-09T05:37:59.290Z,37.51
2022-08-09T05:40:28.067Z,37.21
2022-08-09T05:42:57.013Z,36.87
2022-08-09T05:45:25.486Z,36.36
2022-08-09T05:48:11.688Z,35.51
2022-08-09T05:50:57.035Z,35.59
2022-08-09T05:53:33.373Z,35.18
2022-08-09T05:56:02.273Z,35.00
2022-08-09T05:58:30.389Z,34.42
2022-08-09T06:00:59.117Z,33.79
2022-08-09T06:03:34.902Z,33.22
2022-08-09T06:06:13.211Z,32.45
2022-08-09T06:08:41.613Z,31.93
2022-08-09T06:11:16.519Z,31.51
2022-08-09T06:13:47.460Z,29.94
2022-08-09T06:16:14.892Z,27.69
2022-08-09T06:18:44.600Z,26.94
2022-08-09T06:21:12.725Z,27.93
2022-08-09T06:23:57.995Z,27.64
2022-08-09T06:26:30.533Z,28.57
2022-08-09T06:29:05.039Z,29.53
2022-08-09T06:31:40.049Z,29.12
2022-08-09T06:34:25.941Z,27.87
2022-08-09T06:36:59.456Z,28.00
2022-08-09T06:39:48.721Z,28.35
2022-08-09T06:42:19.789Z,28.48
2022-08-09T06:45:00.052Z,28.62
2022-08-09T06:47:29.941Z,28.72
2022-08-09T06:50:13.525Z,28.92
2022-08-09T06:52:48.801Z,29.45
2022-08-09T06:55:19.029Z,29.68
2022-08-09T06:58:02.721Z,30.07
2022-08-09T07:00:50.100Z,29.48
2022-08-09T07:03:27.969Z,29.10
2022-08-09T07:06:04.114Z,29.32
2022-08-09T07:08:35.256Z,29.19
2022-08-09T07:11:06.560Z,30.06
2022-08-09T07:13:45.388Z,29.49
2022-08-09T07:16:41.403Z,30.01
2022-08-09T07:19:15.777Z,30.00
2022-08-09T07:21:56.046Z,30.16
2022-08-09T07:24:32.390Z,30.65
2022-08-09T07:27:11.146Z,31.15
2022-08-09T07:29:56.963Z,30.62
2022-08-09T07:32:32.434Z,30.31
2022-08-09T07:35:07.887Z,31.31
2022-08-09T07:37:42.769Z,31.73
2022-08-09T07:40:17.683Z,32.05
2022-08-09T07:42:54.520Z,32.59
2022-08-09T07:45:39.244Z,33.23
2022-08-09T07:48:25.742Z,33.91
2022-08-09T07:51:10.244Z,34.44
2022-08-09T07:54:05.618Z,34.78
2022-08-09T07:56:44.876Z,35.46
2022-08-09T07:59:34.714Z,36.40
2022-08-09T08:02:09.149Z,37.11
2022-08-09T08:04:38.462Z,37.53
2022-08-09T08:07:09.565Z,38.21
2022-08-09T08:10:08.985Z,38.44
2022-08-09T08:12:43.505Z,38.69
2022-08-09T08:15:16.413Z,39.10
2022-08-09T08:17:55.111Z,39.35
2022-08-09T08:20:32.360Z,39.49
2022-08-09T08:23:17.134Z,39.50
2022-08-09T08:25:50.327Z,39.04
2022-08-09T08:28:35.393Z,39.35
2022-08-09T08:31:13.879Z,39.74
2022-08-09T08:33:53.757Z,40.33
2022-08-09T08:36:29.208Z,40.54
2022-08-09T08:38:58.496Z,40.38
2022-08-09T08:41:41.810Z,39.85
2022-08-09T08:44:26.853Z,39.75
2022-08-09T08:47:03.304Z,39.99
2022-08-09T08:49:47.840Z,39.95
2022-08-09T08:52:52.742Z,39.83
2022-08-09T08:55:09.479Z,39.74
2022-08-09T08:57:38.167Z,40.07
2022-08-09T09:00:17.154Z,40.43
2022-08-09T09:02:52.628Z,39.65
2022-08-09T09:05:33.155Z,39.37
2022-08-09T09:08:30.098Z,39.91
2022-08-09T09:11:03.818Z,39.70
2022-08-09T09:13:47.365Z,39.51
2022-08-09T09:16:33.721Z,40.00
2022-08-09T09:22:04.345Z,40.10
2022-08-09T09:24:38.020Z,40.02
2022-08-09T09:27:09.322Z,39.79
2022-08-09T09:30:14.151Z,39.46
2022-08-09T09:33:00.204Z,39.09
2022-08-09T09:35:29.649Z,38.77
2022-08-09T09:38:01.467Z,39.17
2022-08-09T09:40:42.632Z,39.32
2022-08-09T09:43:21.699Z,39.30
2022-08-09T09:46:39.562Z,39.82
2022-08-09T09:48:56.882Z,39.00
2022-08-09T09:51:37.970Z,38.87
2022-08-09T09:54:20.523Z,38.62
2022-08-09T09:56:53.334Z,39.08
2022-08-09T09:59:38.341Z,38.00
2022-08-09T10:02:06.922Z,38.32
2022-08-09T10:04:36.577Z,38.06
2022-08-09T10:07:10.111Z,37.50
2022-08-09T10:09:49.031Z,37.12
2022-08-09T10:12:31.272Z,37.34
2022-08-09T10:15:17.464Z,37.67
2022-08-09T10:18:11.272Z,37.22
2022-08-09T10:20:45.198Z,37.66
2022-08-09T10:23:20.407Z,38.23
2022-08-09T10:26:06.218Z,38.54
2022-08-09T10:28:38.225Z,38.94
2022-08-09T10:34:10.761Z,40.03
2022-08-09T10:36:45.285Z,39.43
2022-08-09T10:39:19.167Z,39.24
2022-08-09T10:41:48.314Z,39.09
2022-08-09T10:44:21.770Z,39.42
2022-08-09T10:48:12.118Z,40.04
2022-08-09T10:50:16.968Z,39.42
2022-08-09T10:53:05.174Z,38.97
2022-08-09T10:55:57.931Z,38.62
2022-08-09T10:58:31.572Z,39.01
2022-08-09T11:03:03.019Z,39.05
2022-08-09T11:04:28.133Z,39.48
2022-08-09T11:07:26.912Z,38.86
2022-08-09T11:10:15.408Z,37.86
2022-08-09T11:13:51.255Z,37.36
2022-08-09T11:16:37.805Z,37.48
2022-08-09T11:19:09.413Z,37.47
2022-08-09T11:22:16.892Z,37.80
2022-08-09T11:25:08.122Z,37.72
2022-08-09T11:28:04.835Z,36.79
2022-08-09T11:30:36.185Z,37.34
2022-08-09T11:33:10.419Z,37.20
2022-08-09T11:35:50.218Z,36.79
2022-08-09T11:38:32.688Z,37.53
2022-08-09T11:41:38.019Z,38.27
2022-08-09T11:44:08.899Z,38.48
2022-08-09T11:46:54.195Z,38.80
2022-08-09T11:50:56.819Z,38.94
2022-08-09T11:54:00.518Z,38.53
2022-08-09T11:56:41.928Z,38.01
2022-08-09T11:59:30.585Z,38.61
2022-08-09T12:02:17.045Z,38.77
2022-08-09T12:04:46.703Z,38.91
2022-08-09T12:07:15.416Z,38.90
2022-08-09T12:09:50.937Z,38.87
2022-08-09T12:12:28.838Z,39.06
2022-08-09T12:15:07.933Z,38.88
2022-08-09T12:17:43.336Z,39.17
2022-08-09T12:20:21.394Z,39.17
2022-08-09T12:22:56.107Z,38.22
2022-08-09T12:25:35.914Z,37.75
2022-08-09T12:29:12.150Z,37.79
2022-08-09T12:30:59.688Z,38.52
2022-08-09T12:33:51.074Z,39.06
2022-08-09T12:36:31.855Z,38.79
2022-08-09T12:39:02.389Z,38.20
2022-08-09T12:41:38.083Z,37.25
2022-08-09T12:44:10.388Z,36.96
2022-08-09T12:46:49.067Z,37.31
2022-08-09T12:49:18.842Z,37.92
2022-08-09T12:52:02.236Z,37.67
2022-08-09T12:56:02.349Z,37.99
2022-08-09T12:57:39.773Z,38.36
2022-08-09T13:00:17.248Z,38.96
2022-08-09T13:02:53.442Z,39.08
2022-08-09T13:05:25.316Z,39.52
2022-08-09T13:08:14.735Z,39.70
2022-08-09T13:10:52.503Z,40.01
2022-08-09T13:13:38.230Z,40.37
2022-08-09T13:16:20.806Z,40.59
2022-08-09T13:18:53.769Z,40.63
2022-08-09T13:22:38.384Z,40.64
2022-08-09T13:24:42.188Z,40.87
2022-08-09T13:27:06.082Z,40.62
2022-08-09T13:30:02.704Z,41.12
2022-08-09T13:32:28.954Z,41.05
2022-08-09T13:34:57.405Z,41.30
2022-08-09T13:37:50.549Z,41.45
2022-08-09T13:41:55.140Z,41.57
2022-08-09T13:43:05.306Z,41.68
2022-08-09T13:46:43.633Z,41.78
2022-08-09T13:48:26.788Z,41.51
2022-08-09T13:50:58.465Z,41.20
2022-08-09T13:53:29.217Z,41.61
2022-08-09T13:56:12.232Z,41.93
2022-08-09T13:58:40.705Z,41.97
2022-08-09T14:01:13.516Z,42.15
2022-08-09T14:04:02.985Z,42.26
2022-08-09T14:06:36.911Z,41.86
2022-08-09T14:09:08.544Z,42.07
2022-08-09T14:11:47.318Z,42.00
2022-08-09T14:14:25.778Z,41.71
2022-08-09T14:16:56.147Z,41.39
2022-08-09T14:19:24.718Z,41.22
2022-08-09T14:21:53.086Z,41.25
2022-08-09T14:24:32.199Z,41.29
2022-08-09T14:27:02.202Z,41.39
2022-08-09T14:30:36.360Z,41.37
2022-08-09T14:32:20.028Z,41.54
2022-08-09T14:34:58.986Z,41.65
2022-08-09T14:37:28.351Z,41.70
2022-08-09T14:40:11.441Z,41.49
2022-08-09T14:42:41.345Z,41.22
2022-08-09T14:46:58.754Z,41.42
2022-08-09T14:48:02.460Z,41.58
2022-08-09T14:50:31.126Z,41.71
2022-08-09T14:53:00.626Z,41.91
2022-08-09T14:55:29.055Z,42.00
2022-08-09T14:58:03.025Z,42.13
2022-08-09T15:00:31.708Z,41.71
2022-08-09T15:03:00.123Z,42.15
2022-08-09T15:05:29.576Z,41.96
2022-08-09T15:07:59.031Z,41.62
2022-08-09T15:10:28.704Z,41.47
2022-08-09T15:13:01.558Z,41.66
2022-08-09T15:15:34.478Z,41.91
2022-08-09T15:18:12.419Z,41.91
2022-08-09T15:21:57.605Z,42.19
2022-08-09T15:24:01.904Z,42.46
2022-08-09T15:26:31.412Z,42.58
2022-08-09T15:29:04.240Z,42.38
2022-08-09T15:31:41.884Z,41.99
2022-08-09T15:34:32.769Z,42.15
2022-08-09T15:37:00.116Z,41.79
2022-08-09T15:39:44.039Z,42.04
2022-08-09T15:42:20.485Z,41.98
2022-08-09T15:44:50.397Z,41.56
2022-08-09T15:47:22.500Z,41.80
2022-08-09T15:50:04.885Z,41.23
2022-08-09T15:52:34.672Z,41.39
2022-08-09T15:55:03.662Z,41.63
2022-08-09T15:57:35.662Z,41.55
2022-08-09T16:00:21.889Z,42.05
2022-08-09T16:02:56.273Z,41.99
2022-08-09T16:05:47.096Z,41.54
2022-08-09T16:08:30.933Z,41.59
2022-08-09T16:11:01.607Z,41.51
2022-08-09T16:14:03.510Z,41.14
2022-08-09T16:16:19.216Z,41.49
2022-08-09T16:18:47.770Z,41.74
2022-08-09T16:21:17.748Z,41.81
2022-08-09T16:23:58.336Z,40.99
2022-08-09T16:26:33.527Z,41.59
2022-08-09T16:29:06.078Z,41.81
2022-08-09T16:32:18.111Z,41.91
2022-08-09T16:34:55.196Z,42.12
2022-08-09T16:37:19.526Z,41.99
2022-08-09T16:40:12.146Z,41.93
2022-08-09T16:42:44.998Z,42.18
2022-08-09T16:45:19.135Z,42.21
2022-08-09T16:48:43.280Z,42.68
2022-08-09T16:50:38.398Z,42.76
2022-08-09T16:53:08.950Z,42.68
2022-08-09T16:56:00.579Z,42.39
2022-08-09T16:58:55.774Z,42.57
2022-08-09T17:01:35.450Z,42.67
2022-08-09T17:04:06.890Z,42.81
2022-08-09T17:07:04.817Z,42.84
2022-08-09T17:09:45.708Z,42.99
2022-08-09T17:12:13.426Z,43.27
2022-08-09T17:14:47.944Z,43.64
2022-08-09T17:17:26.626Z,43.72
2022-08-09T17:20:28.710Z,44.21
2022-08-09T17:22:49.741Z,44.41
2022-08-09T17:25:19.101Z,44.58
2022-08-09T17:27:49.413Z,44.88
2022-08-09T17:30:25.730Z,44.87
2022-08-09T17:33:00.551Z,45.16
2022-08-09T17:35:35.710Z,45.37
2022-08-09T17:38:13.271Z,45.70
2022-08-09T17:40:52.698Z,45.68
2022-08-09T17:43:34.588Z,46.20
2022-08-09T17:46:08.800Z,46.59
2022-08-09T17:48:40.482Z,46.72
2022-08-09T17:51:21.433Z,47.09
2022-08-09T17:53:52.790Z,47.36
2022-08-09T17:56:26.629Z,47.50
2022-08-09T17:58:58.664Z,47.62
2022-08-09T18:01:57.863Z,47.62
2022-08-09T18:04:19.613Z,47.79
2022-08-09T18:06:54.368Z,47.78
2022-08-09T18:09:24.987Z,47.77
2022-08-09T18:12:14.638Z,48.04
2022-08-09T18:14:53.334Z,48.13
2022-08-09T18:17:27.539Z,48.12
2022-08-09T18:20:54.657Z,48.26
2022-08-09T18:23:05.115Z,48.42
2022-08-09T18:25:50.526Z,48.40
2022-08-09T18:30:41.056Z,48.28
2022-08-09T18:31:12.216Z,48.62
2022-08-09T18:33:40.819Z,48.56
2022-08-09T18:36:14.086Z,48.78
2022-08-09T18:38:44.004Z,48.87
2022-08-09T18:41:16.534Z,49.00
2022-08-09T18:43:53.256Z,49.00
2022-08-09T18:46:50.300Z,49.16
2022-08-09T18:49:20.296Z,49.29
2022-08-09T18:51:55.306Z,49.32
2022-08-09T18:54:28.427Z,49.72
2022-08-09T18:56:56.669Z,50.14
2022-08-09T18:59:37.594Z,50.95
2022-08-09T19:02:18.504Z,52.33
2022-08-09T19:05:03.815Z,53.16
2022-08-09T19:07:36.940Z,54.06
2022-08-09T19:10:14.197Z,54.36
2022-08-09T19:12:59.531Z,54.61
2022-08-09T19:15:36.137Z,54.70
2022-08-09T19:18:17.294Z,54.66
2022-08-09T19:20:56.921Z,54.95
2022-08-09T19:24:32.015Z,55.11
2022-08-09T19:26:16.909Z,55.23
2022-08-09T19:28:48.985Z,55.38
2022-08-09T19:31:17.773Z,55.52
2022-08-09T19:33:46.537Z,55.67
2022-08-09T19:36:19.955Z,55.88
2022-08-09T19:38:51.759Z,56.28
2022-08-09T19:41:33.338Z,56.43
2022-08-09T19:44:04.770Z,56.75
2022-08-09T19:46:35.631Z,57.07
2022-08-09T19:50:09.514Z,57.19
2022-08-09T19:52:00.212Z,57.60
2022-08-09T19:54:30.170Z,57.99
2022-08-09T19:56:58.834Z,58.01
2022-08-09T19:59:58.269Z,58.11
2022-08-09T20:04:10.570Z,58.31
2022-08-09T20:05:10.120Z,58.43
2022-08-09T20:07:59.545Z,58.55
2022-08-09T20:10:37.161Z,58.74
2022-08-09T20:13:09.683Z,59.06
2022-08-09T20:16:33.028Z,59.32
2022-08-09T20:18:27.609Z,59.66
2022-08-09T20:20:57.773Z,59.74
2022-08-09T20:23:38.571Z,59.90
2022-08-09T20:26:09.326Z,59.87
2022-08-09T20:28:48.812Z,59.99
2022-08-09T20:31:19.165Z,60.03
2022-08-09T20:33:52.530Z,60.01
2022-08-09T20:36:27.590Z,60.13
2022-08-09T20:39:29.155Z,60.23
2022-08-09T20:41:45.049Z,60.76
2022-08-09T20:44:17.463Z,61.08
2022-08-09T20:46:55.636Z,61.09
2022-08-09T20:49:26.827Z,61.30
2022-08-09T20:51:57.413Z,61.51
2022-08-09T20:54:29.211Z,61.69
2022-08-09T20:56:58.417Z,61.84
2022-08-09T21:00:19.322Z,62.15
2022-08-09T21:02:17.402Z,62.20
2022-08-09T21:05:51.767Z,62.25
2022-08-09T21:07:40.701Z,62.23
2022-08-09T21:10:12.542Z,62.47
2022-08-09T21:15:34.586Z,62.90
2022-08-09T21:18:24.062Z,63.23
2022-08-09T21:20:54.101Z,63.44
2022-08-09T21:23:26.530Z,63.32
2022-08-09T21:26:11.579Z,63.47
2022-08-09T21:28:40.298Z,63.67
2022-08-09T21:31:24.287Z,63.81
2022-08-09T21:34:13.204Z,63.87
2022-08-09T21:36:55.449Z,64.11
2022-08-09T21:39:28.285Z,64.48
2022-08-09T21:42:15.325Z,64.64
2022-08-09T21:44:44.144Z,64.67
2022-08-09T21:47:17.349Z,64.74
2022-08-09T21:49:48.860Z,64.90
2022-08-09T21:52:20.627Z,64.92
2022-08-09T21:55:03.690Z,64.91
2022-08-09T21:57:36.928Z,64.88
2022-08-09T22:00:12.469Z,65.18
2022-08-09T22:02:43.718Z,65.31
2022-08-09T22:05:23.829Z,65.60
2022-08-09T22:08:07.108Z,65.69
2022-08-09T22:11:49.742Z,65.85
2022-08-09T22:13:31.410Z,65.96
2022-08-09T22:16:07.716Z,66.15
2022-08-09T22:18:37.830Z,66.33
2022-08-09T22:21:10.040Z,66.64
2022-08-09T22:23:59.432Z,66.73
2022-08-09T22:26:34.123Z,66.78
2022-08-09T22:29:05.387Z,66.70
2022-08-09T22:31:36.346Z,66.77
2022-08-09T22:34:09.716Z,67.07
2022-08-09T22:36:46.413Z,67.01
2022-08-09T22:39:20.812Z,67.13
2022-08-09T22:42:21.276Z,67.20
2022-08-09T22:45:00.468Z,67.05
2022-08-09T22:48:13.938Z,67.25
2022-08-09T22:50:32.540Z,67.39
2022-08-09T22:53:03.293Z,67.38
2022-08-09T22:56:06.541Z,67.50
2022-08-09T22:58:32.794Z,67.62
2022-08-09T23:01:02.631Z,67.47
2022-08-09T23:04:03.744Z,67.65
2022-08-09T23:06:32.664Z,67.85
2022-08-09T23:09:06.242Z,67.62
2022-08-09T23:11:34.535Z,67.72
2022-08-09T23:14:03.803Z,67.83
2022-08-09T23:16:32.553Z,67.87
2022-08-09T23:19:01.103Z,67.91
2022-08-09T23:21:34.577Z,68.29
2022-08-09T23:24:07.263Z,68.25
2022-08-09T23:26:36.579Z,68.34
2022-08-09T23:29:06.302Z,68.32
2022-08-09T23:31:34.567Z,68.34
2022-08-09T23:34:03.985Z,68.42
2022-08-09T23:36:32.916Z,68.44
2022-08-09T23:39:01.820Z,68.53
2022-08-09T23:41:30.145Z,68.74
2022-08-09T23:43:59.609Z,69.06
2022-08-09T23:46:29.040Z,69.11
2022-08-09T23:48:57.942Z,68.76
2022-08-09T23:51:26.956Z,68.81
2022-08-09T23:54:02.390Z,68.73
2022-08-09T23:56:53.723Z,68.68
2022-08-09T23:59:21.448Z,68.64
